3R7

Jennings Airport

Jennings, Louisiana, USA
METAR K3R7 260555Z AUTO 29010G14KT 10SM BKN028 OVC034 21/17 A2994 RMK AO2 T02130174 10251 20211 402770145
Observed Flight Rules
Apr-26 @ 05:55 UTC (6 minutes ago) Marginal Visual Flight Rules
Wind Visibility Clouds
290° at 10 knots
 Gusting to 14 knots
10 miles
  • Broken at 2,800' AGL
  • Overcast at 3,400' AGL
Temperatures Readings
Current 21°C / 70°F
Dewpoint 17°C / 63°F
Humidity 78%
Altimeter 29.94" Hg
Pressure 1014 hPa
Elevation 7
METAR K3R7 260555Z AUTO 29010G14KT 10SM BKN028 OVC034 21/17 A2994 RMK AO2 T02130174 10251 20211 402770145
Observed Flight Rules
Apr-26 @ 05:55 UTC
(6 minutes ago)
MVFR
Wind Visibility
290° at 10 knots
 Gusting to 14 knots
10 miles
Clouds
  • Broken at 2,800' AGL
  • Overcast at 3,400' AGL
Temperature Dewpoint
21°C / 70°F 17°C / 63°F
Humidity Altimeter Pressure
78% 29.94" Hg 1014 hPa